sensor_id;sensor_type;location;lat;lon;timestamp;temperature;humidity
15698;DHT22;7949;48.726;9.102;2023-02-12T00:00:31;4.50;99.90
15698;DHT22;7949;48.726;9.102;2023-02-12T00:02:58;4.50;99.90
15698;DHT22;7949;48.726;9.102;2023-02-12T00:05:26;4.50;99.90
15698;DHT22;7949;48.726;9.102;2023-02-12T00:07:53;4.50;99.90
15698;DHT22;7949;48.726;9.102;2023-02-12T00:10:20;4.40;99.90
15698;DHT22;7949;48.726;9.102;2023-02-12T00:12:47;4.50;99.90
15698;DHT22;7949;48.726;9.102;2023-02-12T00:15:13;4.50;99.90
15698;DHT22;7949;48.726;9.102;2023-02-12T00:17:40;4.50;99.90
15698;DHT22;7949;48.726;9.102;2023-02-12T00:20:08;4.50;99.90
15698;DHT22;7949;48.726;9.102;2023-02-12T00:22:36;4.40;99.90
15698;DHT22;7949;48.726;9.102;2023-02-12T00:25:03;4.30;99.90
15698;DHT22;7949;48.726;9.102;2023-02-12T00:27:32;4.30;99.90
15698;DHT22;7949;48.726;9.102;2023-02-12T00:29:58;4.40;99.90
15698;DHT22;7949;48.726;9.102;2023-02-12T00:32:25;4.40;99.90
15698;DHT22;7949;48.726;9.102;2023-02-12T00:34:52;4.50;99.90
15698;DHT22;7949;48.726;9.102;2023-02-12T00:37:19;4.40;99.90
15698;DHT22;7949;48.726;9.102;2023-02-12T00:39:47;4.40;99.90
15698;DHT22;7949;48.726;9.102;2023-02-12T00:42:14;4.40;99.90
15698;DHT22;7949;48.726;9.102;2023-02-12T00:44:41;4.40;99.90
15698;DHT22;7949;48.726;9.102;2023-02-12T00:47:11;4.30;99.90
15698;DHT22;7949;48.726;9.102;2023-02-12T00:49:38;4.30;99.90
15698;DHT22;7949;48.726;9.102;2023-02-12T00:52:04;4.40;99.90
15698;DHT22;7949;48.726;9.102;2023-02-12T00:54:31;4.40;99.90
15698;DHT22;7949;48.726;9.102;2023-02-12T00:56:59;4.50;99.90
15698;DHT22;7949;48.726;9.102;2023-02-12T00:59:26;4.50;99.90
15698;DHT22;7949;48.726;9.102;2023-02-12T01:01:54;4.50;99.90
15698;DHT22;7949;48.726;9.102;2023-02-12T01:04:21;4.50;99.90
15698;DHT22;7949;48.726;9.102;2023-02-12T01:06:48;4.40;99.90
15698;DHT22;7949;48.726;9.102;2023-02-12T01:09:17;4.30;99.90
15698;DHT22;7949;48.726;9.102;2023-02-12T01:11:44;4.30;99.90
15698;DHT22;7949;48.726;9.102;2023-02-12T01:14:12;4.30;99.90
15698;DHT22;7949;48.726;9.102;2023-02-12T01:16:39;4.30;99.90
15698;DHT22;7949;48.726;9.102;2023-02-12T01:19:06;4.30;99.90
15698;DHT22;7949;48.726;9.102;2023-02-12T01:21:34;4.40;99.90
15698;DHT22;7949;48.726;9.102;2023-02-12T01:24:01;4.40;99.90
15698;DHT22;7949;48.726;9.102;2023-02-12T01:26:29;4.40;99.90
15698;DHT22;7949;48.726;9.102;2023-02-12T01:28:58;4.50;99.90
15698;DHT22;7949;48.726;9.102;2023-02-12T01:31:29;4.50;99.90
15698;DHT22;7949;48.726;9.102;2023-02-12T01:33:57;4.40;99.90
15698;DHT22;7949;48.726;9.102;2023-02-12T01:36:25;4.30;99.90
15698;DHT22;7949;48.726;9.102;2023-02-12T01:38:52;4.20;99.90
15698;DHT22;7949;48.726;9.102;2023-02-12T01:41:21;4.20;99.90
15698;DHT22;7949;48.726;9.102;2023-02-12T01:44:07;4.20;99.90
15698;DHT22;7949;48.726;9.102;2023-02-12T01:46:36;4.30;99.90
15698;DHT22;7949;48.726;9.102;2023-02-12T01:49:05;5.10;99.90
15698;DHT22;7949;48.726;9.102;2023-02-12T01:51:34;4.20;99.90
15698;DHT22;7949;48.726;9.102;2023-02-12T01:54:04;4.10;99.90
15698;DHT22;7949;48.726;9.102;2023-02-12T01:56:33;4.10;99.90
15698;DHT22;7949;48.726;9.102;2023-02-12T01:59:01;4.10;99.90
15698;DHT22;7949;48.726;9.102;2023-02-12T02:01:28;4.10;99.90
15698;DHT22;7949;48.726;9.102;2023-02-12T02:04:01;4.10;99.90
15698;DHT22;7949;48.726;9.102;2023-02-12T02:06:31;4.20;99.90
15698;DHT22;7949;48.726;9.102;2023-02-12T02:09:00;4.20;99.90
15698;DHT22;7949;48.726;9.102;2023-02-12T02:11:27;4.20;99.90
15698;DHT22;7949;48.726;9.102;2023-02-12T02:14:11;4.20;99.90
15698;DHT22;7949;48.726;9.102;2023-02-12T02:17:12;4.20;99.90
15698;DHT22;7949;48.726;9.102;2023-02-12T02:20:17;4.20;99.90
15698;DHT22;7949;48.726;9.102;2023-02-12T02:22:50;4.10;99.90
15698;DHT22;7949;48.726;9.102;2023-02-12T02:28:57;4.20;99.90
15698;DHT22;7949;48.726;9.102;2023-02-12T02:31:29;4.20;99.90
15698;DHT22;7949;48.726;9.102;2023-02-12T02:34:04;4.10;99.90
15698;DHT22;7949;48.726;9.102;2023-02-12T02:36:36;4.10;99.90
15698;DHT22;7949;48.726;9.102;2023-02-12T02:39:10;4.00;99.90
15698;DHT22;7949;48.726;9.102;2023-02-12T02:41:45;3.80;99.90
15698;DHT22;7949;48.726;9.102;2023-02-12T02:44:17;4.20;99.90
15698;DHT22;7949;48.726;9.102;2023-02-12T02:46:49;4.20;99.90
15698;DHT22;7949;48.726;9.102;2023-02-12T02:49:21;4.20;99.90
15698;DHT22;7949;48.726;9.102;2023-02-12T02:51:53;4.20;99.90
15698;DHT22;7949;48.726;9.102;2023-02-12T02:54:24;4.20;99.90
15698;DHT22;7949;48.726;9.102;2023-02-12T02:56:55;4.30;99.90
15698;DHT22;7949;48.726;9.102;2023-02-12T02:59:27;4.20;99.90
15698;DHT22;7949;48.726;9.102;2023-02-12T03:02:00;4.10;99.90
15698;DHT22;7949;48.726;9.102;2023-02-12T03:04:31;4.10;99.90
15698;DHT22;7949;48.726;9.102;2023-02-12T03:07:02;4.00;99.90
15698;DHT22;7949;48.726;9.102;2023-02-12T03:09:34;4.10;99.90
15698;DHT22;7949;48.726;9.102;2023-02-12T03:12:09;4.10;99.90
15698;DHT22;7949;48.726;9.102;2023-02-12T03:14:39;4.10;99.90
15698;DHT22;7949;48.726;9.102;2023-02-12T03:17:14;4.20;99.90
15698;DHT22;7949;48.726;9.102;2023-02-12T03:19:45;4.20;99.90
15698;DHT22;7949;48.726;9.102;2023-02-12T03:22:15;4.20;99.90
15698;DHT22;7949;48.726;9.102;2023-02-12T03:24:45;4.10;99.90
15698;DHT22;7949;48.726;9.102;2023-02-12T03:27:18;4.10;99.90
15698;DHT22;7949;48.726;9.102;2023-02-12T03:29:46;4.00;99.90
15698;DHT22;7949;48.726;9.102;2023-02-12T03:32:23;4.00;99.90
15698;DHT22;7949;48.726;9.102;2023-02-12T03:34:54;4.00;99.90
15698;DHT22;7949;48.726;9.102;2023-02-12T03:37:30;4.10;99.90
15698;DHT22;7949;48.726;9.102;2023-02-12T03:40:05;4.10;99.90
15698;DHT22;7949;48.726;9.102;2023-02-12T03:42:38;5.20;99.90
15698;DHT22;7949;48.726;9.102;2023-02-12T03:45:12;4.10;99.90
15698;DHT22;7949;48.726;9.102;2023-02-12T03:47:47;4.10;99.90
15698;DHT22;7949;48.726;9.102;2023-02-12T03:50:19;4.10;99.90
15698;DHT22;7949;48.726;9.102;2023-02-12T03:52:49;4.10;99.90
15698;DHT22;7949;48.726;9.102;2023-02-12T03:55:17;4.10;99.90
15698;DHT22;7949;48.726;9.102;2023-02-12T03:57:46;4.30;99.90
15698;DHT22;7949;48.726;9.102;2023-02-12T04:00:17;4.40;99.90
15698;DHT22;7949;48.726;9.102;2023-02-12T04:02:46;4.30;99.90
15698;DHT22;7949;48.726;9.102;2023-02-12T04:05:19;4.30;99.90
15698;DHT22;7949;48.726;9.102;2023-02-12T04:07:46;4.20;99.90
15698;DHT22;7949;48.726;9.102;2023-02-12T04:10:14;4.10;99.90
15698;DHT22;7949;48.726;9.102;2023-02-12T04:12:47;4.20;99.90
15698;DHT22;7949;48.726;9.102;2023-02-12T04:15:35;4.30;99.90
15698;DHT22;7949;48.726;9.102;2023-02-12T04:18:09;4.20;99.90
15698;DHT22;7949;48.726;9.102;2023-02-12T04:20:47;4.10;99.90
15698;DHT22;7949;48.726;9.102;2023-02-12T04:23:22;4.70;99.90
15698;DHT22;7949;48.726;9.102;2023-02-12T04:26:02;4.10;99.90
15698;DHT22;7949;48.726;9.102;2023-02-12T04:28:37;4.10;99.90
15698;DHT22;7949;48.726;9.102;2023-02-12T04:31:09;4.10;99.90
15698;DHT22;7949;48.726;9.102;2023-02-12T04:33:45;4.10;99.90
15698;DHT22;7949;48.726;9.102;2023-02-12T04:36:16;4.20;99.90
15698;DHT22;7949;48.726;9.102;2023-02-12T04:38:50;4.10;99.90
15698;DHT22;7949;48.726;9.102;2023-02-12T04:41:19;4.20;99.90
15698;DHT22;7949;48.726;9.102;2023-02-12T04:43:46;4.90;99.90
15698;DHT22;7949;48.726;9.102;2023-02-12T04:46:13;4.10;99.90
15698;DHT22;7949;48.726;9.102;2023-02-12T04:48:49;4.20;99.90
15698;DHT22;7949;48.726;9.102;2023-02-12T04:51:17;4.20;99.90
15698;DHT22;7949;48.726;9.102;2023-02-12T04:53:44;4.20;99.90
15698;DHT22;7949;48.726;9.102;2023-02-12T04:56:11;4.30;99.90
15698;DHT22;7949;48.726;9.102;2023-02-12T04:58:38;4.20;99.90
15698;DHT22;7949;48.726;9.102;2023-02-12T05:01:05;4.20;99.90
15698;DHT22;7949;48.726;9.102;2023-02-12T05:03:33;4.30;99.90
15698;DHT22;7949;48.726;9.102;2023-02-12T05:06:03;4.30;99.90
15698;DHT22;7949;48.726;9.102;2023-02-12T05:08:30;4.30;99.90
15698;DHT22;7949;48.726;9.102;2023-02-12T05:11:02;4.30;99.90
15698;DHT22;7949;48.726;9.102;2023-02-12T05:13:29;4.20;99.90
15698;DHT22;7949;48.726;9.102;2023-02-12T05:15:56;4.50;99.90
15698;DHT22;7949;48.726;9.102;2023-02-12T05:18:23;4.20;99.90
15698;DHT22;7949;48.726;9.102;2023-02-12T05:20:54;4.20;99.90
15698;DHT22;7949;48.726;9.102;2023-02-12T05:23:24;4.10;99.90
15698;DHT22;7949;48.726;9.102;2023-02-12T05:25:51;4.10;99.90
15698;DHT22;7949;48.726;9.102;2023-02-12T05:28:18;4.10;99.90
15698;DHT22;7949;48.726;9.102;2023-02-12T05:30:45;4.10;99.90
15698;DHT22;7949;48.726;9.102;2023-02-12T05:33:12;4.10;99.90
15698;DHT22;7949;48.726;9.102;2023-02-12T05:35:39;4.10;99.90
15698;DHT22;7949;48.726;9.102;2023-02-12T05:38:06;4.10;99.90
15698;DHT22;7949;48.726;9.102;2023-02-12T05:40:34;4.10;99.90
15698;DHT22;7949;48.726;9.102;2023-02-12T05:43:02;4.10;99.90
15698;DHT22;7949;48.726;9.102;2023-02-12T05:45:28;4.10;99.90
15698;DHT22;7949;48.726;9.102;2023-02-12T05:47:55;4.10;99.90
15698;DHT22;7949;48.726;9.102;2023-02-12T05:50:22;4.10;99.90
15698;DHT22;7949;48.726;9.102;2023-02-12T05:52:49;4.10;99.90
15698;DHT22;7949;48.726;9.102;2023-02-12T05:55:16;4.10;99.90
15698;DHT22;7949;48.726;9.102;2023-02-12T05:57:44;4.00;99.90
15698;DHT22;7949;48.726;9.102;2023-02-12T06:00:12;4.10;99.90
15698;DHT22;7949;48.726;9.102;2023-02-12T06:02:39;4.10;99.90
15698;DHT22;7949;48.726;9.102;2023-02-12T06:05:07;4.10;99.90
15698;DHT22;7949;48.726;9.102;2023-02-12T06:07:33;4.20;99.90
15698;DHT22;7949;48.726;9.102;2023-02-12T06:10:00;4.20;99.90
15698;DHT22;7949;48.726;9.102;2023-02-12T06:12:27;4.20;99.90
15698;DHT22;7949;48.726;9.102;2023-02-12T06:14:56;4.20;99.90
15698;DHT22;7949;48.726;9.102;2023-02-12T06:17:22;4.30;99.90
15698;DHT22;7949;48.726;9.102;2023-02-12T06:19:49;4.20;99.90
15698;DHT22;7949;48.726;9.102;2023-02-12T06:22:16;4.20;99.90
15698;DHT22;7949;48.726;9.102;2023-02-12T06:24:43;4.20;99.90
15698;DHT22;7949;48.726;9.102;2023-02-12T06:27:10;4.20;99.90
15698;DHT22;7949;48.726;9.102;2023-02-12T06:29:37;4.30;99.90
15698;DHT22;7949;48.726;9.102;2023-02-12T06:32:05;4.30;99.90
15698;DHT22;7949;48.726;9.102;2023-02-12T06:34:33;4.30;99.90
15698;DHT22;7949;48.726;9.102;2023-02-12T06:37:00;4.40;99.90
15698;DHT22;7949;48.726;9.102;2023-02-12T06:39:27;4.40;99.90
15698;DHT22;7949;48.726;9.102;2023-02-12T06:41:54;4.30;99.90
15698;DHT22;7949;48.726;9.102;2023-02-12T06:44:21;4.30;99.90
15698;DHT22;7949;48.726;9.102;2023-02-12T06:46:48;4.20;99.90
15698;DHT22;7949;48.726;9.102;2023-02-12T06:49:16;4.10;99.90
15698;DHT22;7949;48.726;9.102;2023-02-12T06:51:43;4.10;99.90
15698;DHT22;7949;48.726;9.102;2023-02-12T06:54:15;4.10;99.90
15698;DHT22;7949;48.726;9.102;2023-02-12T06:56:42;4.20;99.90
15698;DHT22;7949;48.726;9.102;2023-02-12T06:59:12;4.20;99.90
15698;DHT22;7949;48.726;9.102;2023-02-12T07:01:39;4.30;99.90
15698;DHT22;7949;48.726;9.102;2023-02-12T07:04:06;4.30;99.90
15698;DHT22;7949;48.726;9.102;2023-02-12T07:06:35;4.30;99.90
15698;DHT22;7949;48.726;9.102;2023-02-12T07:09:03;4.30;99.90
15698;DHT22;7949;48.726;9.102;2023-02-12T07:11:32;4.30;99.90
15698;DHT22;7949;48.726;9.102;2023-02-12T07:13:59;4.20;99.90
15698;DHT22;7949;48.726;9.102;2023-02-12T07:16:26;4.10;99.90
15698;DHT22;7949;48.726;9.102;2023-02-12T07:18:54;4.20;99.90
15698;DHT22;7949;48.726;9.102;2023-02-12T07:21:21;4.20;99.90
15698;DHT22;7949;48.726;9.102;2023-02-12T07:23:50;4.10;99.90
15698;DHT22;7949;48.726;9.102;2023-02-12T07:26:19;4.30;99.90
15698;DHT22;7949;48.726;9.102;2023-02-12T07:28:46;4.30;99.90
15698;DHT22;7949;48.726;9.102;2023-02-12T07:31:15;4.40;99.90
15698;DHT22;7949;48.726;9.102;2023-02-12T07:33:42;4.50;99.90
15698;DHT22;7949;48.726;9.102;2023-02-12T07:36:12;4.40;99.90
15698;DHT22;7949;48.726;9.102;2023-02-12T07:38:39;4.40;99.90
15698;DHT22;7949;48.726;9.102;2023-02-12T07:41:11;4.50;99.90
15698;DHT22;7949;48.726;9.102;2023-02-12T07:43:38;4.50;99.90
15698;DHT22;7949;48.726;9.102;2023-02-12T07:46:08;4.40;99.90
15698;DHT22;7949;48.726;9.102;2023-02-12T07:48:35;4.40;99.90
15698;DHT22;7949;48.726;9.102;2023-02-12T07:51:04;4.40;99.90
15698;DHT22;7949;48.726;9.102;2023-02-12T07:53:31;4.50;99.90
15698;DHT22;7949;48.726;9.102;2023-02-12T07:56:10;4.60;99.90
15698;DHT22;7949;48.726;9.102;2023-02-12T07:58:38;4.80;99.90
15698;DHT22;7949;48.726;9.102;2023-02-12T08:01:16;4.90;99.90
15698;DHT22;7949;48.726;9.102;2023-02-12T08:03:44;4.90;99.90
15698;DHT22;7949;48.726;9.102;2023-02-12T08:06:13;4.90;99.90
15698;DHT22;7949;48.726;9.102;2023-02-12T08:08:40;5.00;99.90
15698;DHT22;7949;48.726;9.102;2023-02-12T08:11:08;6.00;99.90
15698;DHT22;7949;48.726;9.102;2023-02-12T08:13:37;5.20;99.90
15698;DHT22;7949;48.726;9.102;2023-02-12T08:16:07;5.10;99.90
15698;DHT22;7949;48.726;9.102;2023-02-12T08:18:34;5.00;99.90
15698;DHT22;7949;48.726;9.102;2023-02-12T08:21:02;5.10;99.90
15698;DHT22;7949;48.726;9.102;2023-02-12T08:23:30;5.10;99.90
15698;DHT22;7949;48.726;9.102;2023-02-12T08:26:08;5.20;99.90
15698;DHT22;7949;48.726;9.102;2023-02-12T08:28:38;5.10;99.90
15698;DHT22;7949;48.726;9.102;2023-02-12T08:31:10;5.30;99.90
15698;DHT22;7949;48.726;9.102;2023-02-12T08:33:37;5.30;99.90
15698;DHT22;7949;48.726;9.102;2023-02-12T08:36:06;5.20;99.90
15698;DHT22;7949;48.726;9.102;2023-02-12T08:38:34;5.20;99.90
15698;DHT22;7949;48.726;9.102;2023-02-12T08:41:03;5.10;99.90
15698;DHT22;7949;48.726;9.102;2023-02-12T08:43:30;5.10;99.90
15698;DHT22;7949;48.726;9.102;2023-02-12T08:46:06;5.30;99.90
15698;DHT22;7949;48.726;9.102;2023-02-12T08:48:33;5.20;99.90
15698;DHT22;7949;48.726;9.102;2023-02-12T08:51:05;5.30;99.90
15698;DHT22;7949;48.726;9.102;2023-02-12T08:53:32;5.40;99.90
15698;DHT22;7949;48.726;9.102;2023-02-12T08:55:59;5.50;99.90
15698;DHT22;7949;48.726;9.102;2023-02-12T08:58:26;5.50;99.90
15698;DHT22;7949;48.726;9.102;2023-02-12T09:00:53;5.50;99.90
15698;DHT22;7949;48.726;9.102;2023-02-12T09:03:22;5.60;99.90
15698;DHT22;7949;48.726;9.102;2023-02-12T09:05:49;5.60;99.90
15698;DHT22;7949;48.726;9.102;2023-02-12T09:08:16;5.70;99.90
15698;DHT22;7949;48.726;9.102;2023-02-12T09:10:45;5.70;99.90
15698;DHT22;7949;48.726;9.102;2023-02-12T09:13:13;5.90;99.90
15698;DHT22;7949;48.726;9.102;2023-02-12T09:15:42;6.00;99.90
15698;DHT22;7949;48.726;9.102;2023-02-12T09:18:09;6.20;99.90
15698;DHT22;7949;48.726;9.102;2023-02-12T09:20:40;6.30;99.90
15698;DHT22;7949;48.726;9.102;2023-02-12T09:23:07;6.30;99.90
15698;DHT22;7949;48.726;9.102;2023-02-12T09:25:38;6.40;99.90
15698;DHT22;7949;48.726;9.102;2023-02-12T09:28:05;6.60;99.90
15698;DHT22;7949;48.726;9.102;2023-02-12T09:30:32;6.50;99.90
15698;DHT22;7949;48.726;9.102;2023-02-12T09:32:59;6.40;99.90
15698;DHT22;7949;48.726;9.102;2023-02-12T09:35:26;6.50;99.90
15698;DHT22;7949;48.726;9.102;2023-02-12T09:37:54;6.60;99.90
15698;DHT22;7949;48.726;9.102;2023-02-12T09:40:27;6.70;99.90
15698;DHT22;7949;48.726;9.102;2023-02-12T09:43:04;6.70;99.90
15698;DHT22;7949;48.726;9.102;2023-02-12T09:45:35;6.90;99.90
15698;DHT22;7949;48.726;9.102;2023-02-12T09:48:11;6.90;99.90
15698;DHT22;7949;48.726;9.102;2023-02-12T09:50:48;6.90;99.90
15698;DHT22;7949;48.726;9.102;2023-02-12T09:53:22;6.80;99.90
15698;DHT22;7949;48.726;9.102;2023-02-12T09:55:50;6.90;99.90
15698;DHT22;7949;48.726;9.102;2023-02-12T09:58:22;7.00;99.90
15698;DHT22;7949;48.726;9.102;2023-02-12T10:00:53;7.20;99.90
15698;DHT22;7949;48.726;9.102;2023-02-12T10:03:21;7.00;99.90
15698;DHT22;7949;48.726;9.102;2023-02-12T10:05:50;6.90;99.90
15698;DHT22;7949;48.726;9.102;2023-02-12T10:08:39;7.00;99.90
15698;DHT22;7949;48.726;9.102;2023-02-12T10:11:23;7.20;99.90
15698;DHT22;7949;48.726;9.102;2023-02-12T10:14:00;7.40;99.90
15698;DHT22;7949;48.726;9.102;2023-02-12T10:16:39;7.40;99.90
15698;DHT22;7949;48.726;9.102;2023-02-12T10:19:22;7.50;99.90
15698;DHT22;7949;48.726;9.102;2023-02-12T10:21:58;7.50;99.90
15698;DHT22;7949;48.726;9.102;2023-02-12T10:24:53;7.20;99.90
15698;DHT22;7949;48.726;9.102;2023-02-12T10:27:30;7.10;99.90
15698;DHT22;7949;48.726;9.102;2023-02-12T10:30:03;7.20;99.90
15698;DHT22;7949;48.726;9.102;2023-02-12T10:32:39;7.30;99.90
15698;DHT22;7949;48.726;9.102;2023-02-12T10:35:13;7.20;99.90
15698;DHT22;7949;48.726;9.102;2023-02-12T10:37:43;7.10;99.90
15698;DHT22;7949;48.726;9.102;2023-02-12T10:40:20;7.10;99.90
15698;DHT22;7949;48.726;9.102;2023-02-12T10:42:50;7.10;99.90
15698;DHT22;7949;48.726;9.102;2023-02-12T10:45:20;7.20;99.90
15698;DHT22;7949;48.726;9.102;2023-02-12T10:47:51;7.30;99.90
15698;DHT22;7949;48.726;9.102;2023-02-12T10:50:25;7.30;99.90
15698;DHT22;7949;48.726;9.102;2023-02-12T10:52:56;7.40;99.90
15698;DHT22;7949;48.726;9.102;2023-02-12T10:55:28;7.60;99.90
15698;DHT22;7949;48.726;9.102;2023-02-12T10:57:56;7.40;99.90
15698;DHT22;7949;48.726;9.102;2023-02-12T11:00:28;7.60;99.90
15698;DHT22;7949;48.726;9.102;2023-02-12T11:03:04;7.50;99.90
15698;DHT22;7949;48.726;9.102;2023-02-12T11:05:34;7.60;99.90
15698;DHT22;7949;48.726;9.102;2023-02-12T11:08:01;7.80;99.90
15698;DHT22;7949;48.726;9.102;2023-02-12T11:10:32;7.70;99.90
15698;DHT22;7949;48.726;9.102;2023-02-12T11:12:59;7.50;99.90
15698;DHT22;7949;48.726;9.102;2023-02-12T11:15:31;7.50;99.90
15698;DHT22;7949;48.726;9.102;2023-02-12T11:18:02;7.50;99.90
15698;DHT22;7949;48.726;9.102;2023-02-12T11:20:35;7.50;99.90
15698;DHT22;7949;48.726;9.102;2023-02-12T11:23:05;7.60;99.90
15698;DHT22;7949;48.726;9.102;2023-02-12T11:25:35;7.70;99.90
15698;DHT22;7949;48.726;9.102;2023-02-12T11:28:15;8.00;99.90
15698;DHT22;7949;48.726;9.102;2023-02-12T11:30:50;7.80;99.90
15698;DHT22;7949;48.726;9.102;2023-02-12T11:33:23;7.80;99.90
15698;DHT22;7949;48.726;9.102;2023-02-12T11:35:52;7.90;99.90
15698;DHT22;7949;48.726;9.102;2023-02-12T11:38:23;7.80;99.90
15698;DHT22;7949;48.726;9.102;2023-02-12T11:40:57;8.50;99.90
15698;DHT22;7949;48.726;9.102;2023-02-12T11:43:25;8.00;99.90
15698;DHT22;7949;48.726;9.102;2023-02-12T11:45:54;8.20;99.90
15698;DHT22;7949;48.726;9.102;2023-02-12T11:48:24;8.10;99.90
15698;DHT22;7949;48.726;9.102;2023-02-12T11:50:53;8.10;99.90
15698;DHT22;7949;48.726;9.102;2023-02-12T11:53:23;8.10;99.90
15698;DHT22;7949;48.726;9.102;2023-02-12T11:55:58;8.20;99.90
15698;DHT22;7949;48.726;9.102;2023-02-12T11:58:26;8.20;99.90
15698;DHT22;7949;48.726;9.102;2023-02-12T12:01:00;8.00;99.90
15698;DHT22;7949;48.726;9.102;2023-02-12T12:03:33;8.00;99.90
15698;DHT22;7949;48.726;9.102;2023-02-12T12:06:06;8.70;99.90
15698;DHT22;7949;48.726;9.102;2023-02-12T12:08:39;8.30;99.90
15698;DHT22;7949;48.726;9.102;2023-02-12T12:11:14;8.30;99.90
15698;DHT22;7949;48.726;9.102;2023-02-12T12:13:46;8.40;99.90
15698;DHT22;7949;48.726;9.102;2023-02-12T12:16:19;8.50;99.90
15698;DHT22;7949;48.726;9.102;2023-02-12T12:19:11;8.60;99.90
15698;DHT22;7949;48.726;9.102;2023-02-12T12:22:02;8.60;99.90
15698;DHT22;7949;48.726;9.102;2023-02-12T12:24:37;8.70;99.90
15698;DHT22;7949;48.726;9.102;2023-02-12T12:27:14;8.80;99.90
15698;DHT22;7949;48.726;9.102;2023-02-12T12:30:15;8.50;99.90
15698;DHT22;7949;48.726;9.102;2023-02-12T12:32:45;8.70;99.90
15698;DHT22;7949;48.726;9.102;2023-02-12T12:35:17;9.00;99.90
15698;DHT22;7949;48.726;9.102;2023-02-12T12:37:46;8.70;99.90
15698;DHT22;7949;48.726;9.102;2023-02-12T12:40:41;8.70;99.90
15698;DHT22;7949;48.726;9.102;2023-02-12T12:43:25;8.90;99.90
15698;DHT22;7949;48.726;9.102;2023-02-12T12:46:20;8.80;99.90
15698;DHT22;7949;48.726;9.102;2023-02-12T12:49:10;8.90;99.90
15698;DHT22;7949;48.726;9.102;2023-02-12T12:52:03;9.00;99.90
15698;DHT22;7949;48.726;9.102;2023-02-12T12:54:47;8.90;99.90
15698;DHT22;7949;48.726;9.102;2023-02-12T12:57:32;9.00;99.90
15698;DHT22;7949;48.726;9.102;2023-02-12T13:00:18;8.90;99.90
15698;DHT22;7949;48.726;9.102;2023-02-12T13:03:18;9.10;99.90
15698;DHT22;7949;48.726;9.102;2023-02-12T13:06:18;9.00;99.90
15698;DHT22;7949;48.726;9.102;2023-02-12T13:08:59;9.30;99.90
15698;DHT22;7949;48.726;9.102;2023-02-12T13:11:37;9.50;99.90
15698;DHT22;7949;48.726;9.102;2023-02-12T13:14:18;9.70;99.90
15698;DHT22;7949;48.726;9.102;2023-02-12T13:17:00;9.40;99.90
15698;DHT22;7949;48.726;9.102;2023-02-12T13:19:40;9.10;99.90
15698;DHT22;7949;48.726;9.102;2023-02-12T13:22:14;8.70;99.90
15698;DHT22;7949;48.726;9.102;2023-02-12T13:24:46;8.70;99.90
15698;DHT22;7949;48.726;9.102;2023-02-12T13:27:19;8.90;99.90
15698;DHT22;7949;48.726;9.102;2023-02-12T13:29:49;8.60;99.90
15698;DHT22;7949;48.726;9.102;2023-02-12T13:32:23;8.50;99.90
15698;DHT22;7949;48.726;9.102;2023-02-12T13:34:53;8.50;99.90
15698;DHT22;7949;48.726;9.102;2023-02-12T13:37:29;8.50;99.90
15698;DHT22;7949;48.726;9.102;2023-02-12T13:39:59;8.80;99.90
15698;DHT22;7949;48.726;9.102;2023-02-12T13:42:38;9.10;99.90
15698;DHT22;7949;48.726;9.102;2023-02-12T13:45:18;9.10;99.90
15698;DHT22;7949;48.726;9.102;2023-02-12T13:47:54;9.20;99.90
15698;DHT22;7949;48.726;9.102;2023-02-12T13:50:38;10.10;99.90
15698;DHT22;7949;48.726;9.102;2023-02-12T13:53:15;10.20;99.90
15698;DHT22;7949;48.726;9.102;2023-02-12T13:55:58;10.80;99.90
15698;DHT22;7949;48.726;9.102;2023-02-12T13:58:54;11.10;99.90
15698;DHT22;7949;48.726;9.102;2023-02-12T14:01:36;10.60;99.90
15698;DHT22;7949;48.726;9.102;2023-02-12T14:04:23;10.50;99.90
15698;DHT22;7949;48.726;9.102;2023-02-12T14:06:56;10.70;99.90
15698;DHT22;7949;48.726;9.102;2023-02-12T14:09:31;10.80;99.90
15698;DHT22;7949;48.726;9.102;2023-02-12T14:12:01;11.30;99.90
15698;DHT22;7949;48.726;9.102;2023-02-12T14:14:32;11.30;99.90
15698;DHT22;7949;48.726;9.102;2023-02-12T14:20:07;11.80;99.90
15698;DHT22;7949;48.726;9.102;2023-02-12T14:22:57;11.50;99.90
15698;DHT22;7949;48.726;9.102;2023-02-12T14:25:33;10.90;99.90
15698;DHT22;7949;48.726;9.102;2023-02-12T14:28:09;10.50;99.90
15698;DHT22;7949;48.726;9.102;2023-02-12T14:30:39;9.80;99.90
15698;DHT22;7949;48.726;9.102;2023-02-12T14:33:18;9.70;99.90
15698;DHT22;7949;48.726;9.102;2023-02-12T14:36:15;9.40;99.90
15698;DHT22;7949;48.726;9.102;2023-02-12T14:39:02;8.80;99.90
15698;DHT22;7949;48.726;9.102;2023-02-12T14:41:31;8.70;99.90
15698;DHT22;7949;48.726;9.102;2023-02-12T14:50:29;8.40;99.90
15698;DHT22;7949;48.726;9.102;2023-02-12T14:53:11;8.30;99.90
15698;DHT22;7949;48.726;9.102;2023-02-12T14:55:46;8.20;99.90
15698;DHT22;7949;48.726;9.102;2023-02-12T14:58:17;8.20;99.90
15698;DHT22;7949;48.726;9.102;2023-02-12T15:00:46;8.30;99.90
15698;DHT22;7949;48.726;9.102;2023-02-12T15:03:18;8.30;99.90
15698;DHT22;7949;48.726;9.102;2023-02-12T15:05:52;8.40;99.90
15698;DHT22;7949;48.726;9.102;2023-02-12T15:08:27;8.30;99.90
15698;DHT22;7949;48.726;9.102;2023-02-12T15:11:00;8.20;99.90
15698;DHT22;7949;48.726;9.102;2023-02-12T15:13:36;8.00;99.90
15698;DHT22;7949;48.726;9.102;2023-02-12T15:16:13;8.10;99.90
15698;DHT22;7949;48.726;9.102;2023-02-12T15:18:47;8.20;99.90
15698;DHT22;7949;48.726;9.102;2023-02-12T15:21:21;8.30;99.90
15698;DHT22;7949;48.726;9.102;2023-02-12T15:24:01;9.10;99.90
15698;DHT22;7949;48.726;9.102;2023-02-12T15:26:30;10.20;99.90
15698;DHT22;7949;48.726;9.102;2023-02-12T15:29:00;11.50;99.90
15698;DHT22;7949;48.726;9.102;2023-02-12T15:31:31;11.70;99.90
15698;DHT22;7949;48.726;9.102;2023-02-12T15:34:00;11.40;99.90
15698;DHT22;7949;48.726;9.102;2023-02-12T15:36:29;10.20;99.90
15698;DHT22;7949;48.726;9.102;2023-02-12T15:39:00;9.40;99.90
15698;DHT22;7949;48.726;9.102;2023-02-12T15:41:35;8.70;99.90
15698;DHT22;7949;48.726;9.102;2023-02-12T15:44:17;8.50;99.90
15698;DHT22;7949;48.726;9.102;2023-02-12T15:46:53;8.30;99.90
15698;DHT22;7949;48.726;9.102;2023-02-12T15:49:20;8.30;99.90
15698;DHT22;7949;48.726;9.102;2023-02-12T15:51:50;8.10;99.90
15698;DHT22;7949;48.726;9.102;2023-02-12T15:54:18;7.90;99.90
15698;DHT22;7949;48.726;9.102;2023-02-12T15:56:46;7.70;99.90
15698;DHT22;7949;48.726;9.102;2023-02-12T15:59:18;7.50;99.90
15698;DHT22;7949;48.726;9.102;2023-02-12T16:01:52;8.00;99.90
15698;DHT22;7949;48.726;9.102;2023-02-12T16:04:19;7.30;99.90
15698;DHT22;7949;48.726;9.102;2023-02-12T16:06:46;7.30;99.90
15698;DHT22;7949;48.726;9.102;2023-02-12T16:09:16;7.20;99.90
15698;DHT22;7949;48.726;9.102;2023-02-12T16:11:46;7.10;99.90
15698;DHT22;7949;48.726;9.102;2023-02-12T16:14:19;7.00;99.90
15698;DHT22;7949;48.726;9.102;2023-02-12T16:16:49;7.00;99.90
15698;DHT22;7949;48.726;9.102;2023-02-12T16:19:19;8.30;99.90
15698;DHT22;7949;48.726;9.102;2023-02-12T16:21:48;6.70;99.90
15698;DHT22;7949;48.726;9.102;2023-02-12T16:24:27;6.70;99.90
15698;DHT22;7949;48.726;9.102;2023-02-12T16:26:57;6.50;99.90
15698;DHT22;7949;48.726;9.102;2023-02-12T16:29:24;7.20;99.90
15698;DHT22;7949;48.726;9.102;2023-02-12T16:31:55;6.40;99.90
15698;DHT22;7949;48.726;9.102;2023-02-12T16:34:28;6.30;99.90
15698;DHT22;7949;48.726;9.102;2023-02-12T16:36:55;6.30;99.90
15698;DHT22;7949;48.726;9.102;2023-02-12T16:42:25;6.20;99.90
15698;DHT22;7949;48.726;9.102;2023-02-12T16:44:53;6.00;99.90